createdAt,value
2022-09-20T00:01:35.360Z,97354.14
2022-09-20T00:04:04.625Z,97346.20
2022-09-20T00:06:34.134Z,97346.13
2022-09-20T00:09:03.065Z,97343.42
2022-09-20T00:11:33.834Z,97338.81
2022-09-20T00:14:05.432Z,97339.60
2022-09-20T00:16:38.493Z,97341.28
2022-09-20T00:19:07.020Z,97335.55
2022-09-20T00:21:38.579Z,97334.53
2022-09-20T00:24:06.592Z,97342.24
2022-09-20T00:26:34.160Z,97341.92
2022-09-20T00:29:01.828Z,97341.83
2022-09-20T00:31:29.556Z,97340.41
2022-09-20T00:34:17.002Z,97341.20
2022-09-20T00:36:45.331Z,97342.62
2022-09-20T00:39:15.451Z,97345.48
2022-09-20T00:41:46.598Z,97351.27
2022-09-20T00:45:04.437Z,97349.92
2022-09-20T00:48:01.656Z,97354.20
2022-09-20T00:50:55.820Z,97346.59
2022-09-20T00:53:35.344Z,97346.20
2022-09-20T00:56:13.410Z,97342.45
2022-09-20T00:58:46.723Z,97347.33
2022-09-20T01:01:15.221Z,97342.39
2022-09-20T01:03:51.369Z,97342.55
2022-09-20T01:06:22.676Z,97342.63
2022-09-20T01:09:01.388Z,97322.13
2022-09-20T01:11:37.549Z,97327.70
2022-09-20T01:14:15.664Z,97332.77
2022-09-20T01:16:47.012Z,97329.74
2022-09-20T01:19:29.114Z,97331.35
2022-09-20T01:21:56.628Z,97329.67
2022-09-20T01:24:38.782Z,97327.20
2022-09-20T01:27:11.733Z,97328.31
2022-09-20T01:29:50.824Z,97318.93
2022-09-20T01:32:23.530Z,97330.45
2022-09-20T01:34:55.056Z,97323.48
2022-09-20T01:37:42.865Z,97325.23
2022-09-20T01:40:28.205Z,97321.80
2022-09-20T01:43:25.401Z,97321.80
2022-09-20T01:45:53.045Z,97324.44
2022-09-20T01:48:34.682Z,97322.84
2022-09-20T01:51:37.162Z,97322.38
2022-09-20T01:54:48.183Z,97324.59
2022-09-20T01:57:47.179Z,97328.18
2022-09-20T02:00:30.432Z,97323.87
2022-09-20T02:03:21.289Z,97319.59
2022-09-20T02:06:35.694Z,97323.41
2022-09-20T02:09:53.102Z,97328.18
2022-09-20T02:12:54.869Z,97327.23
2022-09-20T02:15:50.799Z,97328.98
2022-09-20T02:18:44.795Z,97325.72
2022-09-20T02:21:39.884Z,97322.91
2022-09-20T02:24:29.692Z,97328.58
2022-09-20T02:27:30.272Z,97324.53
2022-09-20T02:30:21.762Z,97322.28
2022-09-20T02:33:41.583Z,97326.67
2022-09-20T02:36:23.788Z,97327.92
2022-09-20T02:39:25.146Z,97330.89
2022-09-20T02:42:10.248Z,97332.94
2022-09-20T02:45:19.539Z,97336.42
2022-09-20T02:47:48.244Z,97334.22
2022-09-20T02:50:44.356Z,97338.04
2022-09-20T02:53:29.540Z,97336.20
2022-09-20T02:56:15.131Z,97339.62
2022-09-20T02:59:07.655Z,97337.08
2022-09-20T03:01:46.814Z,97338.09
2022-09-20T03:04:42.137Z,97339.28
2022-09-20T03:07:43.560Z,97333.42
2022-09-20T03:10:41.564Z,97341.20
2022-09-20T03:13:33.153Z,97346.84
2022-09-20T03:16:30.311Z,97348.91
2022-09-20T03:19:22.938Z,97345.48
2022-09-20T03:22:01.551Z,97348.68
2022-09-20T03:25:00.518Z,97342.72
2022-09-20T03:27:42.259Z,97337.55
2022-09-20T03:30:45.446Z,97340.25
2022-09-20T03:33:33.551Z,97337.55
2022-09-20T03:36:25.432Z,97335.97
2022-09-20T03:39:10.716Z,97343.51
2022-09-20T03:42:03.404Z,97346.14
2022-09-20T03:44:54.715Z,97357.25
2022-09-20T03:48:06.503Z,97352.50
2022-09-20T03:51:05.321Z,97353.75
2022-09-20T03:53:55.333Z,97351.94
2022-09-20T03:56:58.411Z,97357.17
2022-09-20T03:59:43.617Z,97356.70
2022-09-20T04:02:59.760Z,97368.38
2022-09-20T04:05:54.404Z,97370.60
2022-09-20T04:08:50.024Z,97365.52
2022-09-20T04:11:41.249Z,97359.05
2022-09-20T04:14:28.772Z,97363.19
2022-09-20T04:17:49.020Z,97364.46
2022-09-20T04:20:48.679Z,97366.34
2022-09-20T04:23:41.666Z,97372.02
2022-09-20T04:26:09.646Z,97370.40
2022-09-20T04:29:03.928Z,97374.73
2022-09-20T04:31:54.201Z,97382.20
2022-09-20T04:34:32.206Z,97385.23
2022-09-20T04:37:04.526Z,97389.70
2022-09-20T04:39:48.952Z,97385.88
2022-09-20T04:43:01.658Z,97381.95
2022-09-20T04:45:43.454Z,97391.19
2022-09-20T04:48:47.296Z,97392.53
2022-09-20T04:51:54.702Z,97400.17
2022-09-20T04:55:03.107Z,97391.11
2022-09-20T04:57:47.809Z,97400.47
2022-09-20T05:00:22.293Z,97407.72
2022-09-20T05:03:22.268Z,97403.41
2022-09-20T05:06:13.888Z,97400.23
2022-09-20T05:09:29.384Z,97405.80
2022-09-20T05:12:15.281Z,97402.62
2022-09-20T05:15:09.450Z,97405.48
2022-09-20T05:18:10.465Z,97403.11
2022-09-20T05:20:53.382Z,97405.02
2022-09-20T05:23:44.694Z,97404.06
2022-09-20T05:26:35.363Z,97404.45
2022-09-20T05:32:28.809Z,97403.19
2022-09-20T05:35:37.843Z,97404.21
2022-09-20T05:38:36.496Z,97403.91
2022-09-20T05:41:18.621Z,97411.69
2022-09-20T05:44:09.677Z,97407.64
2022-09-20T05:47:20.268Z,97401.77
2022-09-20T05:50:31.755Z,97398.73
2022-09-20T05:53:35.372Z,97409.22
2022-09-20T05:56:36.722Z,97405.00
2022-09-20T05:59:30.854Z,97408.53
2022-09-20T06:02:33.587Z,97409.06
2022-09-20T06:05:18.611Z,97416.54
2022-09-20T06:08:23.900Z,97416.71
2022-09-20T06:10:59.653Z,97418.37
2022-09-20T06:13:55.945Z,97427.37
2022-09-20T06:16:48.969Z,97420.84
2022-09-20T06:19:31.340Z,97420.05
2022-09-20T06:22:07.273Z,97428.05
2022-09-20T06:24:57.990Z,97429.06
2022-09-20T06:27:34.081Z,97434.16
2022-09-20T06:30:05.945Z,97428.59
2022-09-20T06:32:34.295Z,97423.59
2022-09-20T06:35:04.757Z,97430.11
2022-09-20T06:38:02.400Z,97427.80
2022-09-20T06:40:56.730Z,97428.19
2022-09-20T06:43:24.547Z,97433.59
2022-09-20T06:45:52.252Z,97428.42
2022-09-20T06:48:19.969Z,97431.84
2022-09-20T06:50:47.459Z,97431.37
2022-09-20T06:53:20.484Z,97435.69
2022-09-20T06:55:48.239Z,97437.11
2022-09-20T06:58:15.921Z,97432.37
2022-09-20T07:00:43.613Z,97434.75
2022-09-20T07:03:12.591Z,97432.55
2022-09-20T07:05:40.217Z,97439.59
2022-09-20T07:08:07.821Z,97442.63
2022-09-20T07:10:35.388Z,97443.81
2022-09-20T07:13:03.583Z,97440.66
2022-09-20T07:15:33.145Z,97437.95
2022-09-20T07:18:01.197Z,97432.94
2022-09-20T07:20:28.991Z,97447.64
2022-09-20T07:22:56.779Z,97442.92
2022-09-20T07:25:24.081Z,97449.38
2022-09-20T07:27:51.683Z,97451.52
2022-09-20T07:30:20.780Z,97446.41
2022-09-20T07:32:48.375Z,97447.13
2022-09-20T07:35:16.278Z,97444.59
2022-09-20T07:37:44.235Z,97443.58
2022-09-20T07:40:12.013Z,97447.69
2022-09-20T07:42:39.669Z,97440.87
2022-09-20T07:45:08.393Z,97449.32
2022-09-20T07:47:35.768Z,97444.53
2022-09-20T07:50:04.756Z,97443.88
2022-09-20T07:52:32.124Z,97443.86
2022-09-20T07:54:59.222Z,97430.72
2022-09-20T07:57:26.576Z,97432.59
2022-09-20T07:59:53.855Z,97432.14
2022-09-20T08:02:20.972Z,97431.13
2022-09-20T08:04:49.420Z,97438.08
2022-09-20T08:07:16.791Z,97435.09
2022-09-20T08:09:44.193Z,97432.31
2022-09-20T08:14:42.449Z,97436.12
2022-09-20T08:17:10.844Z,97429.55
2022-09-20T08:19:42.528Z,97434.68
2022-09-20T08:22:11.694Z,97432.22
2022-09-20T08:24:39.058Z,97428.61
2022-09-20T08:27:06.619Z,97432.68
2022-09-20T08:29:34.387Z,97428.81
2022-09-20T08:32:02.643Z,97431.97
2022-09-20T08:34:30.519Z,97427.63
2022-09-20T08:36:57.796Z,97425.71
2022-09-20T08:42:03.654Z,97421.28
2022-09-20T08:44:45.385Z,97418.38
2022-09-20T08:47:22.489Z,97426.95
2022-09-20T08:49:56.985Z,97425.87
2022-09-20T08:52:36.235Z,97422.14
2022-09-20T08:55:01.307Z,97425.64
2022-09-20T08:57:33.439Z,97425.87
2022-09-20T09:00:05.451Z,97417.72
2022-09-20T09:02:33.887Z,97423.57
2022-09-20T09:05:07.076Z,97416.92
2022-09-20T09:07:34.376Z,97418.59
2022-09-20T09:10:02.510Z,97417.02
2022-09-20T09:12:32.876Z,97420.16
2022-09-20T09:15:23.813Z,97420.43
2022-09-20T09:17:51.278Z,97421.37
2022-09-20T09:20:22.267Z,97420.48
2022-09-20T09:23:04.471Z,97412.35
2022-09-20T09:25:38.489Z,97415.30
2022-09-20T09:28:13.366Z,97415.42
2022-09-20T09:30:48.772Z,97413.19
2022-09-20T09:33:33.164Z,97413.67
2022-09-20T09:36:29.613Z,97416.85
2022-09-20T09:39:24.974Z,97417.73
2022-09-20T09:41:52.819Z,97418.13
2022-09-20T09:44:30.018Z,97407.80
2022-09-20T09:46:57.603Z,97415.00
2022-09-20T09:49:32.614Z,97416.23
2022-09-20T09:52:09.096Z,97412.80
2022-09-20T09:54:41.626Z,97411.97
2022-09-20T09:57:49.885Z,97401.80
2022-09-20T10:00:22.494Z,97411.33
2022-09-20T10:03:17.861Z,97415.28
2022-09-20T10:06:01.180Z,97415.55
2022-09-20T10:08:59.881Z,97420.62
2022-09-20T10:11:37.146Z,97422.48
2022-09-20T10:14:49.334Z,97429.34
2022-09-20T10:17:41.958Z,97425.23
2022-09-20T10:20:37.391Z,97425.14
2022-09-20T10:24:01.220Z,97426.41
2022-09-20T10:26:34.507Z,97428.28
2022-09-20T10:29:28.920Z,97430.17
2022-09-20T10:32:21.272Z,97428.84
2022-09-20T10:35:28.137Z,97433.58
2022-09-20T10:38:22.895Z,97426.63
2022-09-20T10:41:43.393Z,97421.48
2022-09-20T10:44:31.406Z,97416.81
2022-09-20T10:47:17.723Z,97414.22
2022-09-20T10:50:06.610Z,97412.65
2022-09-20T10:53:02.382Z,97418.27
2022-09-20T10:55:52.934Z,97418.28
2022-09-20T10:59:03.919Z,97427.13
2022-09-20T11:01:57.302Z,97424.87
2022-09-20T11:05:00.769Z,97426.41
2022-09-20T11:08:11.559Z,97432.83
2022-09-20T11:11:16.637Z,97434.68
2022-09-20T11:14:01.848Z,97436.78
2022-09-20T11:16:50.463Z,97443.44
2022-09-20T11:19:55.535Z,97443.21
2022-09-20T11:22:45.312Z,97440.72
2022-09-20T11:25:43.959Z,97433.75
2022-09-20T11:28:25.940Z,97429.47
2022-09-20T11:31:07.812Z,97430.78
2022-09-20T11:33:53.113Z,97430.03
2022-09-20T11:37:00.338Z,97434.36
2022-09-20T11:39:55.236Z,97440.27
2022-09-20T11:42:29.994Z,97438.34
2022-09-20T11:44:57.515Z,97428.41
2022-09-20T11:47:53.806Z,97426.04
2022-09-20T11:50:17.175Z,97429.98
2022-09-20T11:53:04.548Z,97426.64
2022-09-20T11:55:49.854Z,97422.59
2022-09-20T11:58:21.117Z,97429.84
2022-09-20T12:00:53.883Z,97423.50
2022-09-20T12:03:39.868Z,97421.91
2022-09-20T12:06:29.819Z,97422.59
2022-09-20T12:09:02.704Z,97416.27
2022-09-20T12:11:39.503Z,97418.22
2022-09-20T12:14:27.067Z,97420.72
2022-09-20T12:16:56.492Z,97417.64
2022-09-20T12:19:38.338Z,97421.61
2022-09-20T12:22:12.172Z,97420.22
2022-09-20T12:24:45.149Z,97425.77
2022-09-20T12:27:32.123Z,97421.75
2022-09-20T12:30:19.582Z,97424.73
2022-09-20T12:32:51.737Z,97423.19
2022-09-20T12:35:54.876Z,97422.55
2022-09-20T12:38:27.576Z,97420.29
2022-09-20T12:41:09.588Z,97418.93
2022-09-20T12:43:48.101Z,97410.91
2022-09-20T12:46:39.225Z,97420.51
2022-09-20T12:49:51.777Z,97417.64
2022-09-20T12:52:59.639Z,97420.13
2022-09-20T12:55:33.342Z,97410.69
2022-09-20T12:58:15.284Z,97410.88
2022-09-20T13:00:58.802Z,97411.63
2022-09-20T13:03:36.960Z,97414.36
2022-09-20T13:06:16.041Z,97405.14
2022-09-20T13:08:58.297Z,97411.33
2022-09-20T13:11:42.029Z,97411.12
2022-09-20T13:14:18.145Z,97411.16
2022-09-20T13:17:14.017Z,97421.19
2022-09-20T13:19:50.064Z,97410.09
2022-09-20T13:22:37.703Z,97406.50
2022-09-20T13:25:15.450Z,97410.14
2022-09-20T13:28:12.472Z,97408.98
2022-09-20T13:30:41.443Z,97407.53
2022-09-20T13:33:24.804Z,97406.64
2022-09-20T13:35:56.603Z,97411.92
2022-09-20T13:38:29.592Z,97413.08
2022-09-20T13:41:10.668Z,97409.41
2022-09-20T13:43:45.886Z,97405.87
2022-09-20T13:46:30.015Z,97400.45
2022-09-20T13:49:18.964Z,97406.55
2022-09-20T13:51:48.241Z,97405.62
2022-09-20T13:54:33.367Z,97403.46
2022-09-20T13:57:04.560Z,97404.20
2022-09-20T13:59:44.795Z,97397.66
2022-09-20T14:02:23.565Z,97394.27
2022-09-20T14:04:55.571Z,97398.14
2022-09-20T14:07:27.641Z,97403.31
2022-09-20T14:09:56.423Z,97404.97
2022-09-20T14:12:25.529Z,97396.98
2022-09-20T14:14:53.767Z,97401.96
2022-09-20T14:17:24.077Z,97397.20
2022-09-20T14:19:54.250Z,97391.27
2022-09-20T14:22:26.357Z,97398.74
2022-09-20T14:25:05.472Z,97396.02
2022-09-20T14:27:33.075Z,97402.79
2022-09-20T14:30:02.655Z,97399.42
2022-09-20T14:32:44.598Z,97401.00
2022-09-20T14:35:21.506Z,97399.74
2022-09-20T14:37:54.437Z,97399.23
2022-09-20T14:40:30.179Z,97397.20
2022-09-20T14:43:01.346Z,97404.30
2022-09-20T14:45:34.175Z,97402.91
2022-09-20T14:48:13.139Z,97404.68
2022-09-20T14:50:46.504Z,97405.98
2022-09-20T14:53:26.322Z,97414.05
2022-09-20T14:56:07.689Z,97412.52
2022-09-20T14:59:13.537Z,97414.84
2022-09-20T15:01:47.061Z,97411.72
2022-09-20T15:04:22.017Z,97420.33
2022-09-20T15:06:50.654Z,97420.92
2022-09-20T15:09:21.201Z,97427.59
2022-09-20T15:12:15.667Z,97430.52
2022-09-20T15:14:43.691Z,97431.77
2022-09-20T15:17:18.082Z,97432.09
2022-09-20T15:19:47.281Z,97435.25
2022-09-20T15:22:15.680Z,97430.02
2022-09-20T15:24:43.727Z,97431.59
2022-09-20T15:27:14.167Z,97433.62
2022-09-20T15:29:41.577Z,97433.17
2022-09-20T15:32:12.845Z,97439.93
2022-09-20T15:34:40.820Z,97444.66
2022-09-20T15:37:08.318Z,97449.16
2022-09-20T15:39:35.981Z,97443.52
2022-09-20T15:42:04.130Z,97450.30
2022-09-20T15:44:32.197Z,97442.82
2022-09-20T15:46:59.804Z,97441.47
2022-09-20T15:49:27.418Z,97450.73
2022-09-20T15:51:54.750Z,97450.95
2022-09-20T15:54:22.251Z,97449.78
2022-09-20T15:56:51.769Z,97446.14
2022-09-20T15:59:21.087Z,97451.75
2022-09-20T16:01:49.154Z,97451.30
2022-09-20T16:04:19.374Z,97450.38
2022-09-20T16:06:49.838Z,97456.67
2022-09-20T16:09:18.768Z,97455.27
2022-09-20T16:11:47.917Z,97458.62
2022-09-20T16:14:15.683Z,97459.49
2022-09-20T16:16:43.032Z,97461.75
2022-09-20T16:19:16.829Z,97464.67
2022-09-20T16:21:57.300Z,97463.73
2022-09-20T16:24:26.840Z,97464.61
2022-09-20T16:26:54.558Z,97472.52
2022-09-20T16:29:23.012Z,97475.43
2022-09-20T16:31:50.611Z,97479.66
2022-09-20T16:34:32.089Z,97478.73
2022-09-20T16:37:16.891Z,97482.12
2022-09-20T16:39:44.499Z,97485.93
2022-09-20T16:42:12.687Z,97487.28
2022-09-20T16:44:43.878Z,97492.25
2022-09-20T16:47:16.596Z,97495.84
2022-09-20T16:49:43.978Z,97499.30
2022-09-20T16:52:11.608Z,97495.51
2022-09-20T16:54:39.406Z,97492.34
2022-09-20T16:57:07.629Z,97497.39
2022-09-20T16:59:35.309Z,97505.59
2022-09-20T17:02:02.922Z,97505.11
2022-09-20T17:04:30.485Z,97506.58
2022-09-20T17:06:58.201Z,97508.34
2022-09-20T17:09:27.140Z,97512.59
2022-09-20T17:11:55.236Z,97515.71
2022-09-20T17:14:24.574Z,97515.08
2022-09-20T17:16:52.237Z,97513.67
2022-09-20T17:19:20.880Z,97522.89
2022-09-20T17:21:50.669Z,97521.80
2022-09-20T17:24:20.889Z,97527.67
2022-09-20T17:26:50.072Z,97528.95
2022-09-20T17:29:19.469Z,97526.85
2022-09-20T17:31:55.097Z,97528.92
2022-09-20T17:34:21.248Z,97528.28
2022-09-20T17:36:50.363Z,97527.16
2022-09-20T17:39:18.454Z,97530.47
2022-09-20T17:41:49.081Z,97528.06
2022-09-20T17:44:16.742Z,97529.72
2022-09-20T17:46:48.887Z,97537.58
2022-09-20T17:49:20.341Z,97534.03
2022-09-20T17:51:51.868Z,97532.41
2022-09-20T17:54:20.345Z,97538.87
2022-09-20T17:56:51.059Z,97537.59
2022-09-20T17:59:19.932Z,97539.66
2022-09-20T18:01:50.609Z,97537.63
2022-09-20T18:04:20.714Z,97541.04
2022-09-20T18:06:52.091Z,97541.27
2022-09-20T18:09:23.630Z,97550.53
2022-09-20T18:11:53.411Z,97546.01
2022-09-20T18:14:27.437Z,97556.14
2022-09-20T18:17:00.228Z,97557.02
2022-09-20T18:19:34.291Z,97556.56
2022-09-20T18:22:03.589Z,97555.97
2022-09-20T18:24:32.075Z,97557.97
2022-09-20T18:27:00.267Z,97557.34
2022-09-20T18:29:28.572Z,97559.11
2022-09-20T18:31:57.258Z,97558.17
2022-09-20T18:34:29.528Z,97557.56
2022-09-20T18:36:59.268Z,97557.98
2022-09-20T18:39:32.688Z,97557.60
2022-09-20T18:42:02.041Z,97560.01
2022-09-20T18:44:32.993Z,97566.96
2022-09-20T18:47:02.789Z,97559.66
2022-09-20T18:49:31.416Z,97567.96
2022-09-20T18:51:58.952Z,97569.23
2022-09-20T18:54:28.474Z,97568.13
2022-09-20T18:56:56.469Z,97568.38
2022-09-20T18:59:27.028Z,97564.27
2022-09-20T19:02:11.147Z,97563.16
2022-09-20T19:05:16.836Z,97563.09
2022-09-20T19:08:11.473Z,97578.13
2022-09-20T19:10:55.810Z,97578.22
2022-09-20T19:14:03.477Z,97577.93
2022-09-20T19:16:40.846Z,97576.11
2022-09-20T19:19:33.240Z,97579.68
2022-09-20T19:22:23.823Z,97575.16
2022-09-20T19:25:11.920Z,97575.16
2022-09-20T19:27:40.909Z,97578.83
2022-09-20T19:30:13.149Z,97585.49
2022-09-20T19:32:42.278Z,97590.73
2022-09-20T19:35:19.942Z,97583.91
2022-09-20T19:38:10.161Z,97586.67
2022-09-20T19:41:13.590Z,97585.66
2022-09-20T19:43:52.686Z,97588.98
2022-09-20T19:46:44.299Z,97594.32
2022-09-20T19:49:20.559Z,97591.52
2022-09-20T19:51:48.896Z,97580.36
2022-09-20T19:54:18.229Z,97591.33
2022-09-20T19:56:53.757Z,97586.23
2022-09-20T19:59:23.765Z,97590.50
2022-09-20T20:01:52.244Z,97599.05
2022-09-20T20:04:21.469Z,97600.05
2022-09-20T20:07:06.596Z,97598.61
2022-09-20T20:10:18.476Z,97606.13
2022-09-20T20:13:11.561Z,97604.19
2022-09-20T20:15:44.535Z,97605.73
2022-09-20T20:18:56.495Z,97599.69
2022-09-20T20:21:32.309Z,97599.32
2022-09-20T20:24:51.493Z,97606.03
2022-09-20T20:27:20.427Z,97609.71
2022-09-20T20:29:48.243Z,97605.84
2022-09-20T20:32:16.686Z,97607.02
2022-09-20T20:34:44.812Z,97606.83
2022-09-20T20:37:12.908Z,97606.35
2022-09-20T20:39:42.583Z,97611.75
2022-09-20T20:42:12.232Z,97615.19
2022-09-20T20:44:40.543Z,97617.52
2022-09-20T20:47:08.163Z,97614.45
2022-09-20T20:49:35.710Z,97616.78
2022-09-20T20:52:05.837Z,97615.30
2022-09-20T20:54:33.537Z,97623.58
2022-09-20T20:57:02.560Z,97624.38
2022-09-20T20:59:30.061Z,97629.77
2022-09-20T21:01:57.641Z,97628.98
2022-09-20T21:04:27.021Z,97631.36
2022-09-20T21:06:54.879Z,97629.77
2022-09-20T21:09:22.348Z,97627.69
2022-09-20T21:11:50.132Z,97628.56
2022-09-20T21:14:17.836Z,97631.08
2022-09-20T21:16:45.317Z,97631.13
2022-09-20T21:19:15.224Z,97628.56
2022-09-20T21:21:45.856Z,97628.42
2022-09-20T21:24:16.692Z,97631.48
2022-09-20T21:26:46.044Z,97631.86
2022-09-20T21:29:16.133Z,97638.37
2022-09-20T21:31:46.169Z,97638.49
2022-09-20T21:34:15.573Z,97632.72
2022-09-20T21:36:45.570Z,97632.58
2022-09-20T21:39:13.413Z,97634.84
2022-09-20T21:41:41.397Z,97635.48
2022-09-20T21:44:11.100Z,97632.67
2022-09-20T21:46:40.979Z,97626.02
2022-09-20T21:49:11.152Z,97621.86
2022-09-20T21:51:41.586Z,97626.74
2022-09-20T21:54:10.413Z,97621.98
2022-09-20T21:56:39.959Z,97628.28
2022-09-20T21:59:07.635Z,97629.98
2022-09-20T22:01:39.410Z,97633.52
2022-09-20T22:04:10.047Z,97633.56
2022-09-20T22:06:41.645Z,97635.78
2022-09-20T22:09:15.091Z,97640.66
2022-09-20T22:11:48.262Z,97636.89
2022-09-20T22:14:18.905Z,97638.13
2022-09-20T22:16:50.493Z,97641.05
2022-09-20T22:19:18.636Z,97641.85
2022-09-20T22:21:49.425Z,97648.55
2022-09-20T22:24:18.197Z,97645.54
2022-09-20T22:26:48.563Z,97651.64
2022-09-20T22:29:17.005Z,97647.05
2022-09-20T22:31:47.702Z,97657.52
2022-09-20T22:34:19.575Z,97651.37
2022-09-20T22:36:47.367Z,97657.27
2022-09-20T22:39:15.687Z,97655.92
2022-09-20T22:41:44.448Z,97658.11
2022-09-20T22:44:11.933Z,97655.69
2022-09-20T22:46:40.055Z,97653.78
2022-09-20T22:49:09.015Z,97648.03
2022-09-20T22:51:37.688Z,97650.66
2022-09-20T22:54:09.552Z,97654.97
2022-09-20T22:56:40.643Z,97658.75
2022-09-20T22:59:11.971Z,97655.25
2022-09-20T23:01:45.756Z,97654.46
2022-09-20T23:04:17.472Z,97651.52
2022-09-20T23:06:54.376Z,97650.17
2022-09-20T23:09:25.057Z,97647.80
2022-09-20T23:11:52.456Z,97655.06
2022-09-20T23:14:21.789Z,97655.69
2022-09-20T23:16:49.739Z,97655.17
2022-09-20T23:19:17.357Z,97650.65
2022-09-20T23:21:45.430Z,97646.60
2022-09-20T23:24:15.509Z,97650.38
2022-09-20T23:26:44.047Z,97651.13
2022-09-20T23:29:15.302Z,97653.47
2022-09-20T23:31:46.361Z,97652.99
2022-09-20T23:34:16.020Z,97654.97
2022-09-20T23:36:44.480Z,97649.96
2022-09-20T23:39:12.221Z,97649.84
2022-09-20T23:41:40.811Z,97646.77
2022-09-20T23:44:09.651Z,97642.03
2022-09-20T23:46:38.282Z,97637.14
2022-09-20T23:49:06.166Z,97644.64
2022-09-20T23:51:34.920Z,97639.72
2022-09-20T23:54:02.641Z,97642.41
2022-09-20T23:56:30.331Z,97646.09
2022-09-20T23:58:57.894Z,97640.33
